sensor_id;sensor_type;location;lat;lon;timestamp;P1;durP1;ratioP1;P2;durP2;ratioP2
3993;SDS011;2011;48.238;13.948;2023-02-11T00:01:51;61.63;;;29.25;;
3993;SDS011;2011;48.238;13.948;2023-02-11T00:04:18;64.45;;;30.48;;
3993;SDS011;2011;48.238;13.948;2023-02-11T00:06:45;76.38;;;34.00;;
3993;SDS011;2011;48.238;13.948;2023-02-11T00:09:13;65.45;;;30.30;;
3993;SDS011;2011;48.238;13.948;2023-02-11T00:11:40;68.13;;;31.95;;
3993;SDS011;2011;48.238;13.948;2023-02-11T00:14:07;66.07;;;28.92;;
3993;SDS011;2011;48.238;13.948;2023-02-11T00:16:35;63.35;;;30.00;;
3993;SDS011;2011;48.238;13.948;2023-02-11T00:19:02;70.03;;;30.70;;
3993;SDS011;2011;48.238;13.948;2023-02-11T00:21:30;65.97;;;30.23;;
3993;SDS011;2011;48.238;13.948;2023-02-11T00:23:58;62.80;;;28.25;;
3993;SDS011;2011;48.238;13.948;2023-02-11T00:26:28;65.30;;;28.58;;
3993;SDS011;2011;48.238;13.948;2023-02-11T00:28:56;69.57;;;30.73;;
3993;SDS011;2011;48.238;13.948;2023-02-11T00:31:25;65.63;;;30.33;;
3993;SDS011;2011;48.238;13.948;2023-02-11T00:33:52;67.65;;;31.33;;
3993;SDS011;2011;48.238;13.948;2023-02-11T00:36:20;59.13;;;28.15;;
3993;SDS011;2011;48.238;13.948;2023-02-11T00:38:49;71.22;;;30.40;;
3993;SDS011;2011;48.238;13.948;2023-02-11T00:41:16;66.97;;;29.88;;
3993;SDS011;2011;48.238;13.948;2023-02-11T00:43:45;69.68;;;30.92;;
3993;SDS011;2011;48.238;13.948;2023-02-11T00:46:12;72.50;;;31.27;;
3993;SDS011;2011;48.238;13.948;2023-02-11T00:48:40;63.83;;;31.65;;
3993;SDS011;2011;48.238;13.948;2023-02-11T00:51:07;64.35;;;29.77;;
3993;SDS011;2011;48.238;13.948;2023-02-11T00:53:34;70.50;;;31.55;;
3993;SDS011;2011;48.238;13.948;2023-02-11T00:56:02;61.15;;;28.20;;
3993;SDS011;2011;48.238;13.948;2023-02-11T00:58:29;75.13;;;29.98;;
3993;SDS011;2011;48.238;13.948;2023-02-11T01:00:58;72.13;;;31.30;;
3993;SDS011;2011;48.238;13.948;2023-02-11T01:03:25;57.67;;;26.52;;
3993;SDS011;2011;48.238;13.948;2023-02-11T01:05:52;63.45;;;29.70;;
3993;SDS011;2011;48.238;13.948;2023-02-11T01:08:18;66.82;;;30.42;;
3993;SDS011;2011;48.238;13.948;2023-02-11T01:10:52;59.97;;;27.25;;
3993;SDS011;2011;48.238;13.948;2023-02-11T01:13:20;62.92;;;28.55;;
3993;SDS011;2011;48.238;13.948;2023-02-11T01:15:47;60.15;;;27.75;;
3993;SDS011;2011;48.238;13.948;2023-02-11T01:18:15;61.40;;;29.60;;
3993;SDS011;2011;48.238;13.948;2023-02-11T01:20:42;61.90;;;28.95;;
3993;SDS011;2011;48.238;13.948;2023-02-11T01:23:09;63.45;;;30.33;;
3993;SDS011;2011;48.238;13.948;2023-02-11T01:25:36;81.20;;;31.08;;
3993;SDS011;2011;48.238;13.948;2023-02-11T01:28:03;68.68;;;30.08;;
3993;SDS011;2011;48.238;13.948;2023-02-11T01:30:30;69.88;;;29.65;;
3993;SDS011;2011;48.238;13.948;2023-02-11T01:32:57;63.17;;;28.70;;
3993;SDS011;2011;48.238;13.948;2023-02-11T01:35:25;70.22;;;32.00;;
3993;SDS011;2011;48.238;13.948;2023-02-11T01:37:52;69.55;;;30.48;;
3993;SDS011;2011;48.238;13.948;2023-02-11T01:40:19;60.35;;;28.83;;
3993;SDS011;2011;48.238;13.948;2023-02-11T01:42:46;66.18;;;29.40;;
3993;SDS011;2011;48.238;13.948;2023-02-11T01:48:23;70.30;;;29.83;;
3993;SDS011;2011;48.238;13.948;2023-02-11T01:50:56;69.90;;;30.10;;
3993;SDS011;2011;48.238;13.948;2023-02-11T01:53:26;71.05;;;31.08;;
3993;SDS011;2011;48.238;13.948;2023-02-11T01:56:12;74.13;;;30.45;;
3993;SDS011;2011;48.238;13.948;2023-02-11T01:59:00;62.88;;;28.70;;
3993;SDS011;2011;48.238;13.948;2023-02-11T02:01:31;76.22;;;29.83;;
3993;SDS011;2011;48.238;13.948;2023-02-11T02:04:00;62.72;;;29.55;;
3993;SDS011;2011;48.238;13.948;2023-02-11T02:06:32;63.53;;;30.35;;
3993;SDS011;2011;48.238;13.948;2023-02-11T02:09:03;69.80;;;31.20;;
3993;SDS011;2011;48.238;13.948;2023-02-11T02:11:34;69.13;;;30.65;;
3993;SDS011;2011;48.238;13.948;2023-02-11T02:14:01;74.10;;;31.05;;
3993;SDS011;2011;48.238;13.948;2023-02-11T02:16:29;81.47;;;31.95;;
3993;SDS011;2011;48.238;13.948;2023-02-11T02:19:02;62.80;;;29.70;;
3993;SDS011;2011;48.238;13.948;2023-02-11T02:24:57;70.55;;;31.45;;
3993;SDS011;2011;48.238;13.948;2023-02-11T02:33:22;68.15;;;29.55;;
3993;SDS011;2011;48.238;13.948;2023-02-11T02:35:56;66.07;;;28.67;;
3993;SDS011;2011;48.238;13.948;2023-02-11T02:38:36;70.32;;;30.30;;
3993;SDS011;2011;48.238;13.948;2023-02-11T02:41:06;70.90;;;30.48;;
3993;SDS011;2011;48.238;13.948;2023-02-11T02:43:35;78.80;;;31.52;;
3993;SDS011;2011;48.238;13.948;2023-02-11T02:46:13;74.78;;;32.60;;
3993;SDS011;2011;48.238;13.948;2023-02-11T02:48:43;76.03;;;31.70;;
3993;SDS011;2011;48.238;13.948;2023-02-11T02:51:14;74.05;;;29.85;;
3993;SDS011;2011;48.238;13.948;2023-02-11T02:54:20;82.20;;;32.50;;
3993;SDS011;2011;48.238;13.948;2023-02-11T02:57:07;69.22;;;31.50;;
3993;SDS011;2011;48.238;13.948;2023-02-11T02:59:49;66.18;;;31.55;;
3993;SDS011;2011;48.238;13.948;2023-02-11T03:02:26;81.15;;;33.13;;
3993;SDS011;2011;48.238;13.948;2023-02-11T03:05:00;66.38;;;31.30;;
3993;SDS011;2011;48.238;13.948;2023-02-11T03:07:34;77.00;;;31.75;;
3993;SDS011;2011;48.238;13.948;2023-02-11T03:10:08;80.60;;;29.85;;
3993;SDS011;2011;48.238;13.948;2023-02-11T03:12:37;68.07;;;31.83;;
3993;SDS011;2011;48.238;13.948;2023-02-11T03:15:06;80.72;;;31.48;;
3993;SDS011;2011;48.238;13.948;2023-02-11T03:17:34;74.32;;;31.70;;
3993;SDS011;2011;48.238;13.948;2023-02-11T03:20:05;78.22;;;33.53;;
3993;SDS011;2011;48.238;13.948;2023-02-11T03:22:36;72.68;;;31.08;;
3993;SDS011;2011;48.238;13.948;2023-02-11T03:25:06;73.20;;;31.45;;
3993;SDS011;2011;48.238;13.948;2023-02-11T03:27:35;65.75;;;30.85;;
3993;SDS011;2011;48.238;13.948;2023-02-11T03:30:06;72.00;;;29.75;;
3993;SDS011;2011;48.238;13.948;2023-02-11T03:32:39;61.90;;;29.20;;
3993;SDS011;2011;48.238;13.948;2023-02-11T03:35:11;59.90;;;28.38;;
3993;SDS011;2011;48.238;13.948;2023-02-11T03:37:42;60.85;;;28.65;;
3993;SDS011;2011;48.238;13.948;2023-02-11T03:40:16;64.18;;;30.13;;
3993;SDS011;2011;48.238;13.948;2023-02-11T03:42:47;62.53;;;28.52;;
3993;SDS011;2011;48.238;13.948;2023-02-11T03:45:17;51.45;;;23.42;;
3993;SDS011;2011;48.238;13.948;2023-02-11T03:47:47;55.88;;;23.77;;
3993;SDS011;2011;48.238;13.948;2023-02-11T03:50:18;58.38;;;24.08;;
3993;SDS011;2011;48.238;13.948;2023-02-11T03:52:47;52.60;;;24.80;;
3993;SDS011;2011;48.238;13.948;2023-02-11T03:55:16;50.83;;;23.70;;
3993;SDS011;2011;48.238;13.948;2023-02-11T03:57:45;54.75;;;25.67;;
3993;SDS011;2011;48.238;13.948;2023-02-11T04:00:13;54.08;;;26.58;;
3993;SDS011;2011;48.238;13.948;2023-02-11T04:02:40;59.63;;;27.73;;
3993;SDS011;2011;48.238;13.948;2023-02-11T04:05:08;63.70;;;28.77;;
3993;SDS011;2011;48.238;13.948;2023-02-11T04:07:39;69.75;;;29.13;;
3993;SDS011;2011;48.238;13.948;2023-02-11T04:10:06;67.97;;;29.17;;
3993;SDS011;2011;48.238;13.948;2023-02-11T04:12:33;57.22;;;28.58;;
3993;SDS011;2011;48.238;13.948;2023-02-11T04:15:00;62.97;;;29.27;;
3993;SDS011;2011;48.238;13.948;2023-02-11T04:17:27;68.25;;;29.17;;
3993;SDS011;2011;48.238;13.948;2023-02-11T04:19:54;60.92;;;28.40;;
3993;SDS011;2011;48.238;13.948;2023-02-11T04:22:21;65.97;;;29.67;;
3993;SDS011;2011;48.238;13.948;2023-02-11T04:24:49;70.55;;;30.00;;
3993;SDS011;2011;48.238;13.948;2023-02-11T04:27:16;69.80;;;28.88;;
3993;SDS011;2011;48.238;13.948;2023-02-11T04:29:43;66.30;;;30.20;;
3993;SDS011;2011;48.238;13.948;2023-02-11T04:32:09;71.03;;;29.90;;
3993;SDS011;2011;48.238;13.948;2023-02-11T04:34:37;68.18;;;29.90;;
3993;SDS011;2011;48.238;13.948;2023-02-11T04:37:04;59.75;;;27.98;;
3993;SDS011;2011;48.238;13.948;2023-02-11T04:39:31;54.90;;;25.83;;
3993;SDS011;2011;48.238;13.948;2023-02-11T04:41:59;55.80;;;27.00;;
3993;SDS011;2011;48.238;13.948;2023-02-11T04:44:26;59.28;;;27.42;;
3993;SDS011;2011;48.238;13.948;2023-02-11T04:46:53;61.28;;;28.33;;
3993;SDS011;2011;48.238;13.948;2023-02-11T04:49:20;65.63;;;28.95;;
3993;SDS011;2011;48.238;13.948;2023-02-11T04:51:47;65.70;;;28.95;;
3993;SDS011;2011;48.238;13.948;2023-02-11T04:54:14;63.67;;;29.92;;
3993;SDS011;2011;48.238;13.948;2023-02-11T04:56:41;79.32;;;30.48;;
3993;SDS011;2011;48.238;13.948;2023-02-11T04:59:09;54.63;;;27.13;;
3993;SDS011;2011;48.238;13.948;2023-02-11T05:01:37;57.85;;;26.88;;
3993;SDS011;2011;48.238;13.948;2023-02-11T05:04:04;62.25;;;29.08;;
3993;SDS011;2011;48.238;13.948;2023-02-11T05:06:31;64.72;;;28.20;;
3993;SDS011;2011;48.238;13.948;2023-02-11T05:08:58;67.53;;;27.45;;
3993;SDS011;2011;48.238;13.948;2023-02-11T05:11:25;64.80;;;28.33;;
3993;SDS011;2011;48.238;13.948;2023-02-11T05:13:51;73.93;;;30.65;;
3993;SDS011;2011;48.238;13.948;2023-02-11T05:16:20;63.97;;;29.23;;
3993;SDS011;2011;48.238;13.948;2023-02-11T05:18:47;60.17;;;29.23;;
3993;SDS011;2011;48.238;13.948;2023-02-11T05:21:15;60.38;;;28.70;;
3993;SDS011;2011;48.238;13.948;2023-02-11T05:23:43;57.15;;;27.80;;
3993;SDS011;2011;48.238;13.948;2023-02-11T05:26:11;57.97;;;27.63;;
3993;SDS011;2011;48.238;13.948;2023-02-11T05:28:39;68.47;;;28.83;;
3993;SDS011;2011;48.238;13.948;2023-02-11T05:31:07;64.38;;;29.20;;
3993;SDS011;2011;48.238;13.948;2023-02-11T05:33:36;68.35;;;29.48;;
3993;SDS011;2011;48.238;13.948;2023-02-11T05:36:04;62.50;;;29.42;;
3993;SDS011;2011;48.238;13.948;2023-02-11T05:38:33;54.83;;;26.75;;
3993;SDS011;2011;48.238;13.948;2023-02-11T05:41:01;60.30;;;28.67;;
3993;SDS011;2011;48.238;13.948;2023-02-11T05:43:29;70.30;;;33.60;;
3993;SDS011;2011;48.238;13.948;2023-02-11T05:45:55;70.90;;;30.80;;
3993;SDS011;2011;48.238;13.948;2023-02-11T05:48:22;68.15;;;32.25;;
3993;SDS011;2011;48.238;13.948;2023-02-11T05:50:51;61.47;;;28.90;;
3993;SDS011;2011;48.238;13.948;2023-02-11T05:53:17;61.08;;;29.70;;
3993;SDS011;2011;48.238;13.948;2023-02-11T05:55:44;64.05;;;27.63;;
3993;SDS011;2011;48.238;13.948;2023-02-11T05:58:11;57.72;;;27.13;;
3993;SDS011;2011;48.238;13.948;2023-02-11T06:00:38;59.63;;;28.15;;
3993;SDS011;2011;48.238;13.948;2023-02-11T06:03:05;62.67;;;29.38;;
3993;SDS011;2011;48.238;13.948;2023-02-11T06:05:32;56.58;;;25.45;;
3993;SDS011;2011;48.238;13.948;2023-02-11T06:08:00;57.10;;;27.60;;
3993;SDS011;2011;48.238;13.948;2023-02-11T06:10:27;61.90;;;27.20;;
3993;SDS011;2011;48.238;13.948;2023-02-11T06:12:54;64.00;;;28.10;;
3993;SDS011;2011;48.238;13.948;2023-02-11T06:15:21;59.28;;;28.08;;
3993;SDS011;2011;48.238;13.948;2023-02-11T06:17:48;79.53;;;34.72;;
3993;SDS011;2011;48.238;13.948;2023-02-11T06:20:15;62.22;;;29.15;;
3993;SDS011;2011;48.238;13.948;2023-02-11T06:22:42;62.72;;;29.52;;
3993;SDS011;2011;48.238;13.948;2023-02-11T06:25:11;57.75;;;27.90;;
3993;SDS011;2011;48.238;13.948;2023-02-11T06:27:38;57.88;;;26.90;;
3993;SDS011;2011;48.238;13.948;2023-02-11T06:30:05;56.42;;;27.65;;
3993;SDS011;2011;48.238;13.948;2023-02-11T06:32:33;60.38;;;26.83;;
3993;SDS011;2011;48.238;13.948;2023-02-11T06:35:00;61.65;;;27.52;;
3993;SDS011;2011;48.238;13.948;2023-02-11T06:37:27;67.45;;;27.90;;
3993;SDS011;2011;48.238;13.948;2023-02-11T06:39:54;55.50;;;25.30;;
3993;SDS011;2011;48.238;13.948;2023-02-11T06:42:22;61.20;;;26.92;;
3993;SDS011;2011;48.238;13.948;2023-02-11T06:44:49;56.33;;;26.95;;
3993;SDS011;2011;48.238;13.948;2023-02-11T06:47:16;65.38;;;27.80;;
3993;SDS011;2011;48.238;13.948;2023-02-11T06:49:43;42.55;;;21.02;;
3993;SDS011;2011;48.238;13.948;2023-02-11T06:52:10;47.75;;;23.35;;
3993;SDS011;2011;48.238;13.948;2023-02-11T06:54:37;57.20;;;22.02;;
3993;SDS011;2011;48.238;13.948;2023-02-11T06:57:04;37.22;;;19.10;;
3993;SDS011;2011;48.238;13.948;2023-02-11T06:59:32;32.38;;;15.65;;
3993;SDS011;2011;48.238;13.948;2023-02-11T07:01:59;29.08;;;14.50;;
3993;SDS011;2011;48.238;13.948;2023-02-11T07:04:26;35.85;;;16.52;;
3993;SDS011;2011;48.238;13.948;2023-02-11T07:06:53;26.92;;;14.93;;
3993;SDS011;2011;48.238;13.948;2023-02-11T07:09:20;33.00;;;18.20;;
3993;SDS011;2011;48.238;13.948;2023-02-11T07:11:47;37.67;;;17.27;;
3993;SDS011;2011;48.238;13.948;2023-02-11T07:14:13;39.80;;;18.80;;
3993;SDS011;2011;48.238;13.948;2023-02-11T07:16:42;44.50;;;21.98;;
3993;SDS011;2011;48.238;13.948;2023-02-11T07:19:09;53.75;;;20.90;;
3993;SDS011;2011;48.238;13.948;2023-02-11T07:21:36;55.05;;;24.88;;
3993;SDS011;2011;48.238;13.948;2023-02-11T07:24:04;56.55;;;25.70;;
3993;SDS011;2011;48.238;13.948;2023-02-11T07:26:32;47.25;;;23.55;;
3993;SDS011;2011;48.238;13.948;2023-02-11T07:28:59;51.88;;;24.48;;
3993;SDS011;2011;48.238;13.948;2023-02-11T07:31:26;58.50;;;26.92;;
3993;SDS011;2011;48.238;13.948;2023-02-11T07:33:56;109.38;;;43.95;;
3993;SDS011;2011;48.238;13.948;2023-02-11T07:36:24;77.85;;;30.13;;
3993;SDS011;2011;48.238;13.948;2023-02-11T07:38:51;51.80;;;19.48;;
3993;SDS011;2011;48.238;13.948;2023-02-11T07:41:19;28.42;;;12.88;;
3993;SDS011;2011;48.238;13.948;2023-02-11T07:43:47;25.30;;;12.80;;
3993;SDS011;2011;48.238;13.948;2023-02-11T07:46:14;27.50;;;13.10;;
3993;SDS011;2011;48.238;13.948;2023-02-11T07:48:43;22.85;;;12.27;;
3993;SDS011;2011;48.238;13.948;2023-02-11T07:51:12;25.17;;;12.68;;
3993;SDS011;2011;48.238;13.948;2023-02-11T07:53:41;22.17;;;12.75;;
3993;SDS011;2011;48.238;13.948;2023-02-11T07:56:09;27.23;;;12.23;;
3993;SDS011;2011;48.238;13.948;2023-02-11T07:58:37;21.45;;;11.95;;
3993;SDS011;2011;48.238;13.948;2023-02-11T08:01:07;26.35;;;13.20;;
3993;SDS011;2011;48.238;13.948;2023-02-11T08:03:36;33.17;;;12.82;;
3993;SDS011;2011;48.238;13.948;2023-02-11T08:06:04;25.42;;;12.82;;
3993;SDS011;2011;48.238;13.948;2023-02-11T08:08:33;28.15;;;12.27;;
3993;SDS011;2011;48.238;13.948;2023-02-11T08:11:04;26.58;;;12.93;;
3993;SDS011;2011;48.238;13.948;2023-02-11T08:13:32;28.52;;;12.30;;
3993;SDS011;2011;48.238;13.948;2023-02-11T08:15:59;21.05;;;10.70;;
3993;SDS011;2011;48.238;13.948;2023-02-11T08:18:26;20.75;;;11.85;;
3993;SDS011;2011;48.238;13.948;2023-02-11T08:20:53;23.23;;;12.20;;
3993;SDS011;2011;48.238;13.948;2023-02-11T08:23:20;31.70;;;16.77;;
3993;SDS011;2011;48.238;13.948;2023-02-11T08:25:48;45.63;;;22.15;;
3993;SDS011;2011;48.238;13.948;2023-02-11T08:28:15;50.40;;;21.45;;
3993;SDS011;2011;48.238;13.948;2023-02-11T08:30:42;40.35;;;20.23;;
3993;SDS011;2011;48.238;13.948;2023-02-11T08:33:09;35.65;;;17.63;;
3993;SDS011;2011;48.238;13.948;2023-02-11T08:35:36;45.85;;;17.70;;
3993;SDS011;2011;48.238;13.948;2023-02-11T08:38:04;38.85;;;17.30;;
3993;SDS011;2011;48.238;13.948;2023-02-11T08:40:31;58.08;;;24.42;;
3993;SDS011;2011;48.238;13.948;2023-02-11T08:42:59;46.38;;;21.00;;
3993;SDS011;2011;48.238;13.948;2023-02-11T08:45:26;59.78;;;22.92;;
3993;SDS011;2011;48.238;13.948;2023-02-11T08:47:53;38.28;;;19.15;;
3993;SDS011;2011;48.238;13.948;2023-02-11T08:50:20;40.00;;;18.45;;
3993;SDS011;2011;48.238;13.948;2023-02-11T08:52:47;37.05;;;17.77;;
3993;SDS011;2011;48.238;13.948;2023-02-11T08:55:13;34.08;;;17.63;;
3993;SDS011;2011;48.238;13.948;2023-02-11T08:57:40;35.53;;;18.42;;
3993;SDS011;2011;48.238;13.948;2023-02-11T09:00:09;36.47;;;17.42;;
3993;SDS011;2011;48.238;13.948;2023-02-11T09:02:37;36.50;;;17.77;;
3993;SDS011;2011;48.238;13.948;2023-02-11T09:05:04;37.08;;;18.27;;
3993;SDS011;2011;48.238;13.948;2023-02-11T09:07:32;22.73;;;11.48;;
3993;SDS011;2011;48.238;13.948;2023-02-11T09:09:59;28.23;;;13.43;;
3993;SDS011;2011;48.238;13.948;2023-02-11T09:12:26;27.55;;;13.55;;
3993;SDS011;2011;48.238;13.948;2023-02-11T09:14:53;25.52;;;13.07;;
3993;SDS011;2011;48.238;13.948;2023-02-11T09:17:21;20.23;;;11.05;;
3993;SDS011;2011;48.238;13.948;2023-02-11T09:19:48;23.95;;;10.80;;
3993;SDS011;2011;48.238;13.948;2023-02-11T09:22:15;31.13;;;10.80;;
3993;SDS011;2011;48.238;13.948;2023-02-11T09:24:42;20.92;;;10.63;;
3993;SDS011;2011;48.238;13.948;2023-02-11T09:27:08;20.17;;;10.77;;
3993;SDS011;2011;48.238;13.948;2023-02-11T09:29:35;25.83;;;12.30;;
3993;SDS011;2011;48.238;13.948;2023-02-11T09:32:02;21.80;;;11.93;;
3993;SDS011;2011;48.238;13.948;2023-02-11T09:34:31;22.15;;;11.75;;
3993;SDS011;2011;48.238;13.948;2023-02-11T09:36:58;22.90;;;11.88;;
3993;SDS011;2011;48.238;13.948;2023-02-11T09:39:25;22.25;;;10.60;;
3993;SDS011;2011;48.238;13.948;2023-02-11T09:41:59;28.15;;;11.00;;
3993;SDS011;2011;48.238;13.948;2023-02-11T09:44:46;27.88;;;10.25;;
3993;SDS011;2011;48.238;13.948;2023-02-11T09:47:20;20.25;;;11.05;;
3993;SDS011;2011;48.238;13.948;2023-02-11T09:49:53;19.25;;;10.20;;
3993;SDS011;2011;48.238;13.948;2023-02-11T09:52:28;19.00;;;9.48;;
3993;SDS011;2011;48.238;13.948;2023-02-11T09:55:01;18.00;;;10.23;;
3993;SDS011;2011;48.238;13.948;2023-02-11T09:57:32;16.38;;;9.63;;
3993;SDS011;2011;48.238;13.948;2023-02-11T10:00:00;18.65;;;8.90;;
3993;SDS011;2011;48.238;13.948;2023-02-11T10:02:41;18.98;;;10.57;;
3993;SDS011;2011;48.238;13.948;2023-02-11T10:05:28;20.42;;;10.65;;
3993;SDS011;2011;48.238;13.948;2023-02-11T10:08:07;17.67;;;9.00;;
3993;SDS011;2011;48.238;13.948;2023-02-11T10:10:43;18.00;;;9.85;;
3993;SDS011;2011;48.238;13.948;2023-02-11T10:16:17;19.92;;;10.13;;
3993;SDS011;2011;48.238;13.948;2023-02-11T10:19:00;18.13;;;9.35;;
3993;SDS011;2011;48.238;13.948;2023-02-11T10:21:55;18.55;;;9.82;;
3993;SDS011;2011;48.238;13.948;2023-02-11T10:24:29;17.88;;;9.85;;
3993;SDS011;2011;48.238;13.948;2023-02-11T10:26:57;18.13;;;9.73;;
3993;SDS011;2011;48.238;13.948;2023-02-11T10:29:27;18.08;;;9.63;;
3993;SDS011;2011;48.238;13.948;2023-02-11T10:31:59;19.65;;;10.63;;
3993;SDS011;2011;48.238;13.948;2023-02-11T10:34:32;18.67;;;10.75;;
3993;SDS011;2011;48.238;13.948;2023-02-11T10:37:01;22.70;;;10.45;;
3993;SDS011;2011;48.238;13.948;2023-02-11T10:39:27;23.00;;;10.52;;
3993;SDS011;2011;48.238;13.948;2023-02-11T10:41:56;21.77;;;10.40;;
3993;SDS011;2011;48.238;13.948;2023-02-11T10:44:28;18.75;;;10.70;;
3993;SDS011;2011;48.238;13.948;2023-02-11T10:46:58;21.92;;;9.98;;
3993;SDS011;2011;48.238;13.948;2023-02-11T10:49:32;23.00;;;11.32;;
3993;SDS011;2011;48.238;13.948;2023-02-11T10:55:03;28.88;;;10.45;;
3993;SDS011;2011;48.238;13.948;2023-02-11T10:57:37;21.92;;;10.60;;
3993;SDS011;2011;48.238;13.948;2023-02-11T11:00:19;21.85;;;10.18;;
3993;SDS011;2011;48.238;13.948;2023-02-11T11:02:58;18.17;;;9.75;;
3993;SDS011;2011;48.238;13.948;2023-02-11T11:05:30;22.25;;;10.40;;
3993;SDS011;2011;48.238;13.948;2023-02-11T11:08:01;18.98;;;10.52;;
3993;SDS011;2011;48.238;13.948;2023-02-11T11:10:33;22.88;;;11.73;;
3993;SDS011;2011;48.238;13.948;2023-02-11T11:13:22;21.13;;;10.85;;
3993;SDS011;2011;48.238;13.948;2023-02-11T11:16:08;17.83;;;10.23;;
3993;SDS011;2011;48.238;13.948;2023-02-11T11:18:47;23.33;;;11.35;;
3993;SDS011;2011;48.238;13.948;2023-02-11T11:21:17;26.80;;;13.95;;
3993;SDS011;2011;48.238;13.948;2023-02-11T11:23:49;30.02;;;12.55;;
3993;SDS011;2011;48.238;13.948;2023-02-11T11:26:19;22.35;;;11.50;;
3993;SDS011;2011;48.238;13.948;2023-02-11T11:28:51;22.15;;;11.82;;
3993;SDS011;2011;48.238;13.948;2023-02-11T11:31:22;26.58;;;12.40;;
3993;SDS011;2011;48.238;13.948;2023-02-11T11:33:51;22.02;;;12.20;;
3993;SDS011;2011;48.238;13.948;2023-02-11T11:36:21;22.23;;;11.95;;
3993;SDS011;2011;48.238;13.948;2023-02-11T11:38:57;23.38;;;12.15;;
3993;SDS011;2011;48.238;13.948;2023-02-11T11:41:29;24.08;;;12.50;;
3993;SDS011;2011;48.238;13.948;2023-02-11T11:43:58;25.70;;;12.80;;
3993;SDS011;2011;48.238;13.948;2023-02-11T11:46:28;22.70;;;11.93;;
3993;SDS011;2011;48.238;13.948;2023-02-11T11:48:59;24.87;;;12.60;;
3993;SDS011;2011;48.238;13.948;2023-02-11T11:51:38;27.25;;;12.27;;
3993;SDS011;2011;48.238;13.948;2023-02-11T11:54:12;24.85;;;12.35;;
3993;SDS011;2011;48.238;13.948;2023-02-11T11:56:45;26.67;;;13.35;;
3993;SDS011;2011;48.238;13.948;2023-02-11T11:59:19;22.83;;;12.47;;
3993;SDS011;2011;48.238;13.948;2023-02-11T12:01:50;25.40;;;11.90;;
3993;SDS011;2011;48.238;13.948;2023-02-11T12:04:37;22.60;;;12.05;;
3993;SDS011;2011;48.238;13.948;2023-02-11T12:07:15;21.95;;;12.32;;
3993;SDS011;2011;48.238;13.948;2023-02-11T12:09:55;28.13;;;13.13;;
3993;SDS011;2011;48.238;13.948;2023-02-11T12:12:37;26.42;;;12.93;;
3993;SDS011;2011;48.238;13.948;2023-02-11T12:15:12;23.60;;;12.30;;
3993;SDS011;2011;48.238;13.948;2023-02-11T12:17:54;23.38;;;13.23;;
3993;SDS011;2011;48.238;13.948;2023-02-11T12:20:34;23.70;;;12.70;;
3993;SDS011;2011;48.238;13.948;2023-02-11T12:23:18;24.67;;;13.13;;
3993;SDS011;2011;48.238;13.948;2023-02-11T12:25:58;28.53;;;14.33;;
3993;SDS011;2011;48.238;13.948;2023-02-11T12:28:33;25.93;;;12.87;;
3993;SDS011;2011;48.238;13.948;2023-02-11T12:31:10;24.43;;;13.17;;
3993;SDS011;2011;48.238;13.948;2023-02-11T12:33:53;29.23;;;12.43;;
3993;SDS011;2011;48.238;13.948;2023-02-11T12:36:33;28.20;;;13.63;;
3993;SDS011;2011;48.238;13.948;2023-02-11T12:39:20;29.93;;;12.83;;
3993;SDS011;2011;48.238;13.948;2023-02-11T12:42:03;27.03;;;12.60;;
3993;SDS011;2011;48.238;13.948;2023-02-11T12:45:05;29.60;;;12.20;;
3993;SDS011;2011;48.238;13.948;2023-02-11T12:47:48;25.80;;;13.50;;
3993;SDS011;2011;48.238;13.948;2023-02-11T12:50:27;21.77;;;11.40;;
3993;SDS011;2011;48.238;13.948;2023-02-11T12:53:09;26.30;;;13.00;;
3993;SDS011;2011;48.238;13.948;2023-02-11T12:55:53;29.50;;;13.50;;
3993;SDS011;2011;48.238;13.948;2023-02-11T12:58:26;28.80;;;12.90;;
3993;SDS011;2011;48.238;13.948;2023-02-11T13:00:57;25.83;;;13.03;;
3993;SDS011;2011;48.238;13.948;2023-02-11T13:03:29;28.83;;;13.30;;
3993;SDS011;2011;48.238;13.948;2023-02-11T13:06:01;25.90;;;13.97;;
3993;SDS011;2011;48.238;13.948;2023-02-11T13:08:32;26.70;;;13.70;;
3993;SDS011;2011;48.238;13.948;2023-02-11T13:11:03;23.87;;;13.13;;
3993;SDS011;2011;48.238;13.948;2023-02-11T13:13:38;28.03;;;14.37;;
3993;SDS011;2011;48.238;13.948;2023-02-11T13:16:16;24.97;;;12.40;;
3993;SDS011;2011;48.238;13.948;2023-02-11T13:18:49;29.87;;;15.53;;
3993;SDS011;2011;48.238;13.948;2023-02-11T13:21:28;27.30;;;14.00;;
3993;SDS011;2011;48.238;13.948;2023-02-11T13:24:06;23.67;;;13.13;;
3993;SDS011;2011;48.238;13.948;2023-02-11T13:26:41;26.33;;;13.00;;
3993;SDS011;2011;48.238;13.948;2023-02-11T13:29:19;25.50;;;13.47;;
3993;SDS011;2011;48.238;13.948;2023-02-11T13:31:54;27.90;;;13.43;;
3993;SDS011;2011;48.238;13.948;2023-02-11T13:34:22;28.40;;;14.20;;
3993;SDS011;2011;48.238;13.948;2023-02-11T13:36:53;24.93;;;13.40;;
3993;SDS011;2011;48.238;13.948;2023-02-11T13:39:21;29.20;;;14.90;;
3993;SDS011;2011;48.238;13.948;2023-02-11T13:41:48;34.63;;;15.40;;
3993;SDS011;2011;48.238;13.948;2023-02-11T13:44:26;31.10;;;14.70;;
3993;SDS011;2011;48.238;13.948;2023-02-11T13:46:55;28.60;;;15.20;;
3993;SDS011;2011;48.238;13.948;2023-02-11T13:49:25;34.10;;;15.50;;
3993;SDS011;2011;48.238;13.948;2023-02-11T13:51:57;29.73;;;15.27;;
3993;SDS011;2011;48.238;13.948;2023-02-11T13:54:27;30.47;;;14.60;;
3993;SDS011;2011;48.238;13.948;2023-02-11T14:00:03;27.40;;;14.87;;
3993;SDS011;2011;48.238;13.948;2023-02-11T14:06:11;29.67;;;15.30;;
3993;SDS011;2011;48.238;13.948;2023-02-11T14:08:58;32.10;;;16.53;;
3993;SDS011;2011;48.238;13.948;2023-02-11T14:11:44;32.57;;;15.10;;
3993;SDS011;2011;48.238;13.948;2023-02-11T14:14:20;25.70;;;13.93;;
3993;SDS011;2011;48.238;13.948;2023-02-11T14:19:55;33.70;;;16.20;;
3993;SDS011;2011;48.238;13.948;2023-02-11T14:22:25;29.20;;;15.60;;
3993;SDS011;2011;48.238;13.948;2023-02-11T14:24:54;34.90;;;15.60;;
3993;SDS011;2011;48.238;13.948;2023-02-11T14:27:28;31.63;;;16.20;;
3993;SDS011;2011;48.238;13.948;2023-02-11T14:30:14;32.53;;;16.13;;
3993;SDS011;2011;48.238;13.948;2023-02-11T14:33:02;30.17;;;15.43;;
3993;SDS011;2011;48.238;13.948;2023-02-11T14:35:49;26.47;;;14.07;;
3993;SDS011;2011;48.238;13.948;2023-02-11T14:38:25;33.73;;;15.13;;
3993;SDS011;2011;48.238;13.948;2023-02-11T14:41:05;31.70;;;14.33;;
3993;SDS011;2011;48.238;13.948;2023-02-11T14:43:37;26.60;;;14.60;;
3993;SDS011;2011;48.238;13.948;2023-02-11T14:46:07;28.10;;;14.90;;
3993;SDS011;2011;48.238;13.948;2023-02-11T14:48:36;33.40;;;16.80;;
3993;SDS011;2011;48.238;13.948;2023-02-11T14:51:09;29.50;;;15.53;;
3993;SDS011;2011;48.238;13.948;2023-02-11T14:53:42;30.43;;;15.03;;
3993;SDS011;2011;48.238;13.948;2023-02-11T14:56:15;28.23;;;15.40;;
3993;SDS011;2011;48.238;13.948;2023-02-11T14:58:45;25.73;;;15.47;;
3993;SDS011;2011;48.238;13.948;2023-02-11T15:01:22;27.13;;;14.70;;
3993;SDS011;2011;48.238;13.948;2023-02-11T15:03:53;27.97;;;14.33;;
3993;SDS011;2011;48.238;13.948;2023-02-11T15:06:23;32.33;;;16.70;;
3993;SDS011;2011;48.238;13.948;2023-02-11T15:08:54;38.07;;;18.37;;
3993;SDS011;2011;48.238;13.948;2023-02-11T15:11:26;29.47;;;15.93;;
3993;SDS011;2011;48.238;13.948;2023-02-11T15:13:56;35.37;;;17.20;;
3993;SDS011;2011;48.238;13.948;2023-02-11T15:16:26;28.80;;;15.60;;
3993;SDS011;2011;48.238;13.948;2023-02-11T15:18:56;36.27;;;18.37;;
3993;SDS011;2011;48.238;13.948;2023-02-11T15:21:27;38.03;;;17.60;;
3993;SDS011;2011;48.238;13.948;2023-02-11T15:23:57;30.73;;;15.97;;
3993;SDS011;2011;48.238;13.948;2023-02-11T15:26:25;33.17;;;16.23;;